createdAt,value
2023-04-30T00:00:16.053Z,11.50
2023-04-30T00:02:43.964Z,10.93
2023-04-30T00:05:11.513Z,10.98
2023-04-30T00:07:42.342Z,11.52
2023-04-30T00:10:13.150Z,11.00
2023-04-30T00:12:40.861Z,10.98
2023-04-30T00:15:08.456Z,11.90
2023-04-30T00:17:36.024Z,11.02
2023-04-30T00:20:03.456Z,11.32
2023-04-30T00:22:31.036Z,11.40
2023-04-30T00:24:58.516Z,11.48
2023-04-30T00:27:26.186Z,10.88
2023-04-30T00:29:55.060Z,11.02
2023-04-30T00:32:22.793Z,11.07
2023-04-30T00:34:50.399Z,11.05
2023-04-30T00:37:17.796Z,11.75
2023-04-30T00:39:45.376Z,11.98
2023-04-30T00:42:12.783Z,11.45
2023-04-30T00:44:40.390Z,11.52
2023-04-30T00:47:07.760Z,12.07
2023-04-30T00:49:35.269Z,11.63
2023-04-30T00:52:02.788Z,11.60
2023-04-30T00:54:30.323Z,11.57
2023-04-30T00:56:59.007Z,12.60
2023-04-30T00:59:26.761Z,12.35
2023-04-30T01:01:54.663Z,11.73
2023-04-30T01:04:22.216Z,12.38
2023-04-30T01:06:49.654Z,12.25
2023-04-30T01:09:17.129Z,11.65
2023-04-30T01:11:57.821Z,11.18
2023-04-30T01:14:28.501Z,11.73
2023-04-30T01:17:01.346Z,12.30
2023-04-30T01:19:36.861Z,11.88
2023-04-30T01:22:05.130Z,12.68
2023-04-30T01:24:36.018Z,12.85
2023-04-30T01:27:22.416Z,13.13
2023-04-30T01:29:50.539Z,13.57
2023-04-30T01:32:18.035Z,12.82
2023-04-30T01:34:45.621Z,13.27
2023-04-30T01:37:21.465Z,12.68
2023-04-30T01:40:12.151Z,12.70
2023-04-30T01:42:46.327Z,14.02
2023-04-30T01:45:13.962Z,14.40
2023-04-30T01:47:47.147Z,14.63
2023-04-30T01:50:40.827Z,14.43
2023-04-30T01:53:10.432Z,14.50
2023-04-30T01:55:44.898Z,14.57
2023-04-30T01:58:13.938Z,14.73
2023-04-30T02:00:41.432Z,14.75
2023-04-30T02:03:09.287Z,14.52
2023-04-30T02:05:36.942Z,14.55
2023-04-30T02:08:04.430Z,14.48
2023-04-30T02:10:31.895Z,14.40
2023-04-30T02:12:59.537Z,14.18
2023-04-30T02:15:27.724Z,14.13
2023-04-30T02:17:55.290Z,13.98
2023-04-30T02:20:22.972Z,14.10
2023-04-30T02:22:50.375Z,14.18
2023-04-30T02:25:17.916Z,14.50
2023-04-30T02:27:45.478Z,14.02
2023-04-30T02:30:12.986Z,13.43
2023-04-30T02:32:40.701Z,12.40
2023-04-30T02:35:08.507Z,13.27
2023-04-30T02:37:35.990Z,12.98
2023-04-30T02:40:03.504Z,14.10
2023-04-30T02:42:31.077Z,12.75
2023-04-30T02:44:58.533Z,13.43
2023-04-30T02:47:26.257Z,13.45
2023-04-30T02:49:53.944Z,13.50
2023-04-30T02:52:21.519Z,13.70
2023-04-30T02:54:48.990Z,14.52
2023-04-30T02:57:16.621Z,14.10
2023-04-30T02:59:46.285Z,13.20
2023-04-30T03:02:14.552Z,15.15
2023-04-30T03:04:42.079Z,14.00
2023-04-30T03:07:09.682Z,14.27
2023-04-30T03:09:37.492Z,14.13
2023-04-30T03:12:05.218Z,15.18
2023-04-30T03:14:32.598Z,14.57
2023-04-30T03:17:00.098Z,13.93
2023-04-30T03:19:28.869Z,14.55
2023-04-30T03:21:56.700Z,14.57
2023-04-30T03:24:25.155Z,14.00
2023-04-30T03:26:52.574Z,15.05
2023-04-30T03:29:20.024Z,14.73
2023-04-30T03:31:47.479Z,14.07
2023-04-30T03:34:15.030Z,14.43
2023-04-30T03:36:42.446Z,15.18
2023-04-30T03:39:10.041Z,14.23
2023-04-30T03:41:37.480Z,14.02
2023-04-30T03:44:05.300Z,15.25
2023-04-30T03:46:32.726Z,15.13
2023-04-30T03:49:00.168Z,15.07
2023-04-30T03:51:28.524Z,14.50
2023-04-30T03:53:56.144Z,14.15
2023-04-30T03:56:23.721Z,13.57
2023-04-30T03:58:51.185Z,14.35
2023-04-30T04:01:19.160Z,14.23
2023-04-30T04:03:46.701Z,14.20
2023-04-30T04:06:14.660Z,13.63
2023-04-30T04:08:43.434Z,13.65
2023-04-30T04:11:11.585Z,13.88
2023-04-30T04:13:39.526Z,13.50
2023-04-30T04:16:08.726Z,14.00
2023-04-30T04:18:36.615Z,13.77
2023-04-30T04:21:04.338Z,13.40
2023-04-30T04:23:32.237Z,13.63
2023-04-30T04:26:00.404Z,13.18
2023-04-30T04:28:28.653Z,12.63
2023-04-30T04:30:56.398Z,13.95
2023-04-30T04:33:23.830Z,13.48
2023-04-30T04:35:51.353Z,13.63
2023-04-30T04:38:20.176Z,13.27
2023-04-30T04:40:54.312Z,13.85
2023-04-30T04:43:22.941Z,13.85
2023-04-30T04:45:50.619Z,13.98
2023-04-30T04:48:18.383Z,14.07
2023-04-30T04:50:46.205Z,13.55
2023-04-30T04:53:14.144Z,13.00
2023-04-30T04:55:41.750Z,12.90
2023-04-30T04:58:09.184Z,13.88
2023-04-30T05:00:36.718Z,13.75
2023-04-30T05:03:04.304Z,13.27
2023-04-30T05:05:32.209Z,13.05
2023-04-30T05:07:59.586Z,13.30
2023-04-30T05:10:27.078Z,12.95
2023-04-30T05:12:54.493Z,13.23
2023-04-30T05:15:22.046Z,12.93
2023-04-30T05:17:49.576Z,12.75
2023-04-30T05:20:17.055Z,12.85
2023-04-30T05:22:44.481Z,13.27
2023-04-30T05:25:11.933Z,13.43
2023-04-30T05:27:39.436Z,13.45
2023-04-30T05:30:07.189Z,14.13
2023-04-30T05:32:35.061Z,14.77
2023-04-30T05:35:02.611Z,15.32
2023-04-30T05:37:30.279Z,15.57
2023-04-30T05:39:57.735Z,15.65
2023-04-30T05:42:25.238Z,15.55
2023-04-30T05:44:52.736Z,16.02
2023-04-30T05:47:20.241Z,16.40
2023-04-30T05:49:47.623Z,15.75
2023-04-30T05:52:17.318Z,14.93
2023-04-30T05:54:44.868Z,14.80
2023-04-30T05:57:12.342Z,15.93
2023-04-30T05:59:39.802Z,16.83
2023-04-30T06:02:07.814Z,15.02
2023-04-30T06:04:35.366Z,15.48
2023-04-30T06:07:02.793Z,15.82
2023-04-30T06:09:30.278Z,14.95
2023-04-30T06:11:57.925Z,14.18
2023-04-30T06:14:25.563Z,14.38
2023-04-30T06:16:53.913Z,14.32
2023-04-30T06:19:21.442Z,15.52
2023-04-30T06:21:48.955Z,15.48
2023-04-30T06:24:16.456Z,15.35
2023-04-30T06:26:43.964Z,17.08
2023-04-30T06:29:11.415Z,17.77
2023-04-30T06:31:39.054Z,16.92
2023-04-30T06:34:06.690Z,15.52
2023-04-30T06:36:34.127Z,16.80
2023-04-30T06:39:01.773Z,21.70
2023-04-30T06:41:29.248Z,21.73
2023-04-30T06:43:56.724Z,21.50
2023-04-30T06:46:24.179Z,19.67
2023-04-30T06:48:51.594Z,18.70
2023-04-30T06:51:19.086Z,18.95
2023-04-30T06:53:46.583Z,20.52
2023-04-30T06:56:13.967Z,26.35
2023-04-30T06:58:41.480Z,17.70
2023-04-30T07:01:08.905Z,19.15
2023-04-30T07:03:39.296Z,16.88
2023-04-30T07:06:06.924Z,20.02
2023-04-30T07:08:34.340Z,19.75
2023-04-30T07:11:01.798Z,25.38
2023-04-30T07:13:29.217Z,28.25
2023-04-30T07:15:56.793Z,17.77
2023-04-30T07:18:24.239Z,17.67
2023-04-30T07:20:51.733Z,17.85
2023-04-30T07:23:19.300Z,18.38
2023-04-30T07:25:46.804Z,17.77
2023-04-30T07:28:14.274Z,21.73
2023-04-30T07:30:41.756Z,23.60
2023-04-30T07:33:09.787Z,21.73
2023-04-30T07:35:37.406Z,20.58
2023-04-30T07:38:05.875Z,22.65
2023-04-30T07:40:36.266Z,18.70
2023-04-30T07:43:05.185Z,23.15
2023-04-30T07:45:34.034Z,19.58
2023-04-30T07:48:02.041Z,14.05
2023-04-30T07:50:33.926Z,17.80
2023-04-30T07:53:02.746Z,8.93
2023-04-30T07:55:30.495Z,12.65
2023-04-30T07:57:58.821Z,12.23
2023-04-30T08:00:26.556Z,10.07
2023-04-30T08:02:54.216Z,13.15
2023-04-30T08:05:21.795Z,15.73
2023-04-30T08:07:49.206Z,11.95
2023-04-30T08:10:16.753Z,13.60
2023-04-30T08:12:44.271Z,9.98
2023-04-30T08:15:12.066Z,10.20
2023-04-30T08:17:39.730Z,11.25
2023-04-30T08:20:08.153Z,16.45
2023-04-30T08:22:36.493Z,13.00
2023-04-30T08:25:04.181Z,9.77
2023-04-30T08:27:32.507Z,11.60
2023-04-30T08:30:00.119Z,11.48
2023-04-30T08:32:28.365Z,7.88
2023-04-30T08:34:56.169Z,10.18
2023-04-30T08:37:23.811Z,7.28
2023-04-30T08:39:51.286Z,6.43
2023-04-30T08:42:20.155Z,28.80
2023-04-30T08:44:48.289Z,9.70
2023-04-30T08:47:18.137Z,8.20
2023-04-30T08:49:46.310Z,9.30
2023-04-30T08:52:13.952Z,18.20
2023-04-30T08:54:41.352Z,12.30
2023-04-30T08:57:08.765Z,31.08
2023-04-30T08:59:36.386Z,8.98
2023-04-30T09:02:06.073Z,7.97
2023-04-30T09:04:34.313Z,68.75
2023-04-30T09:07:05.194Z,32.92
2023-04-30T09:09:38.892Z,9.30
2023-04-30T09:12:19.144Z,12.38
2023-04-30T09:15:14.073Z,6.00
2023-04-30T09:17:41.667Z,4.80
2023-04-30T09:20:12.729Z,5.88
2023-04-30T09:22:41.243Z,6.65
2023-04-30T09:25:09.467Z,4.97
2023-04-30T09:27:36.950Z,5.22
2023-04-30T09:30:04.822Z,4.93
2023-04-30T09:32:32.435Z,5.25
2023-04-30T09:35:00.001Z,12.77
2023-04-30T09:37:39.804Z,4.43
2023-04-30T09:40:08.011Z,4.30
2023-04-30T09:42:35.617Z,4.55
2023-04-30T09:45:07.758Z,4.55
2023-04-30T09:47:35.920Z,10.15
2023-04-30T09:50:03.820Z,71.82
2023-04-30T09:52:32.119Z,11.82
2023-04-30T09:54:59.612Z,29.17
2023-04-30T09:57:29.788Z,5.60
2023-04-30T09:59:58.262Z,12.65
2023-04-30T10:02:29.029Z,7.10
2023-04-30T10:04:57.020Z,5.55
2023-04-30T10:07:26.488Z,6.22
2023-04-30T10:10:05.075Z,25.75
2023-04-30T10:12:49.466Z,6.55
2023-04-30T10:15:18.838Z,4.47
2023-04-30T10:17:56.311Z,4.85
2023-04-30T10:20:25.301Z,4.70
2023-04-30T10:22:52.726Z,3.72
2023-04-30T10:25:20.647Z,3.80
2023-04-30T10:27:48.154Z,3.20
2023-04-30T10:30:16.210Z,3.63
2023-04-30T10:32:51.902Z,5.10
2023-04-30T10:35:27.731Z,4.10
2023-04-30T10:38:13.037Z,3.83
2023-04-30T10:40:44.181Z,3.75
2023-04-30T10:43:12.379Z,31.88
2023-04-30T10:45:42.551Z,5.28
2023-04-30T10:48:10.351Z,3.42
2023-04-30T10:50:46.420Z,4.20
2023-04-30T10:53:19.855Z,4.18
2023-04-30T10:55:49.393Z,3.97
2023-04-30T10:58:27.835Z,3.33
2023-04-30T11:01:25.367Z,3.80
2023-04-30T11:04:09.271Z,3.53
2023-04-30T11:06:55.046Z,3.42
2023-04-30T11:09:39.117Z,3.70
2023-04-30T11:12:11.993Z,3.80
2023-04-30T11:14:43.604Z,3.50
2023-04-30T11:17:11.849Z,3.83
2023-04-30T11:19:49.168Z,3.40
2023-04-30T11:22:17.451Z,3.28
2023-04-30T11:24:55.501Z,3.67
2023-04-30T11:27:27.042Z,3.47
2023-04-30T11:29:55.430Z,3.33
2023-04-30T11:32:27.601Z,3.47
2023-04-30T11:34:56.017Z,3.28
2023-04-30T11:37:30.624Z,3.50
2023-04-30T11:42:25.346Z,3.10
2023-04-30T11:44:52.789Z,3.10
2023-04-30T11:47:20.206Z,3.00
2023-04-30T11:49:47.829Z,3.20
2023-04-30T11:52:15.397Z,3.53
2023-04-30T11:54:42.957Z,3.20
2023-04-30T11:57:10.556Z,3.10
2023-04-30T11:59:42.376Z,2.70
2023-04-30T12:02:11.674Z,2.88
2023-04-30T12:04:44.089Z,2.58
2023-04-30T12:07:11.656Z,2.88
2023-04-30T12:09:57.862Z,3.00
2023-04-30T12:12:31.883Z,4.03
2023-04-30T12:14:59.510Z,3.67
2023-04-30T12:17:34.120Z,2.78
2023-04-30T12:20:01.907Z,2.80
2023-04-30T12:22:29.496Z,3.35
2023-04-30T12:24:57.719Z,4.78
2023-04-30T12:27:25.265Z,3.05
2023-04-30T12:29:55.069Z,2.70
2023-04-30T12:32:23.058Z,2.85
2023-04-30T12:34:51.442Z,3.28
2023-04-30T12:37:18.922Z,2.83
2023-04-30T12:39:47.374Z,3.20
2023-04-30T12:42:20.065Z,3.25
2023-04-30T12:44:47.734Z,2.90
2023-04-30T12:47:16.417Z,2.70
2023-04-30T12:49:46.913Z,2.38
2023-04-30T12:52:15.678Z,2.50
2023-04-30T12:54:43.768Z,2.65
2023-04-30T12:57:12.314Z,2.75
2023-04-30T12:59:59.658Z,2.80
2023-04-30T13:02:33.709Z,2.65
2023-04-30T13:05:01.230Z,2.97
2023-04-30T13:07:38.199Z,2.72
2023-04-30T13:10:07.308Z,3.60
2023-04-30T13:12:34.801Z,4.20
2023-04-30T13:15:03.713Z,3.50
2023-04-30T13:17:31.195Z,6.20
2023-04-30T13:19:58.691Z,2.85
2023-04-30T13:22:29.634Z,3.10
2023-04-30T13:24:57.133Z,3.00
2023-04-30T13:27:24.586Z,3.15
2023-04-30T13:29:52.367Z,3.28
2023-04-30T13:32:19.938Z,3.58
2023-04-30T13:34:48.158Z,3.10
2023-04-30T13:37:15.592Z,3.15
2023-04-30T13:39:43.052Z,3.38
2023-04-30T13:42:10.734Z,3.08
2023-04-30T13:44:39.121Z,2.92
2023-04-30T13:47:07.677Z,3.22
2023-04-30T13:49:36.292Z,3.05
2023-04-30T13:52:06.636Z,3.22
2023-04-30T13:54:34.128Z,4.55
2023-04-30T13:57:03.348Z,5.20
2023-04-30T13:59:31.820Z,3.53
2023-04-30T14:01:59.360Z,7.03
2023-04-30T14:04:27.490Z,7.57
2023-04-30T14:06:56.702Z,4.40
2023-04-30T14:09:27.587Z,3.17
2023-04-30T14:11:56.236Z,3.50
2023-04-30T14:14:23.662Z,9.32
2023-04-30T14:16:51.268Z,4.18
2023-04-30T14:19:21.545Z,3.58
2023-04-30T14:21:49.106Z,3.97
2023-04-30T14:24:16.546Z,2.83
2023-04-30T14:26:45.619Z,2.80
2023-04-30T14:29:13.114Z,2.90
2023-04-30T14:31:40.672Z,2.80
2023-04-30T14:34:08.184Z,2.60
2023-04-30T14:36:36.221Z,2.80
2023-04-30T14:39:04.720Z,3.40
2023-04-30T14:41:36.164Z,3.00
2023-04-30T14:44:04.340Z,3.28
2023-04-30T14:46:33.396Z,3.50
2023-04-30T14:49:01.222Z,3.50
2023-04-30T14:51:28.775Z,4.38
2023-04-30T14:53:56.277Z,3.58
2023-04-30T14:56:25.044Z,3.20
2023-04-30T14:58:53.579Z,3.00
2023-04-30T15:01:21.198Z,3.00
2023-04-30T15:03:51.711Z,3.20
2023-04-30T15:06:19.746Z,2.90
2023-04-30T15:08:47.214Z,3.33
2023-04-30T15:11:14.838Z,3.03
2023-04-30T15:13:42.342Z,3.72
2023-04-30T15:16:09.942Z,3.20
2023-04-30T15:18:37.448Z,3.30
2023-04-30T15:21:05.088Z,3.90
2023-04-30T15:23:33.805Z,4.78
2023-04-30T15:26:02.009Z,3.08
2023-04-30T15:28:29.438Z,3.67
2023-04-30T15:30:56.989Z,5.63
2023-04-30T15:33:28.872Z,3.72
2023-04-30T15:35:56.476Z,3.22
2023-04-30T15:38:23.909Z,3.22
2023-04-30T15:40:52.109Z,3.63
2023-04-30T15:43:19.599Z,3.45
2023-04-30T15:45:51.222Z,3.13
2023-04-30T15:48:18.821Z,3.30
2023-04-30T15:50:46.221Z,3.13
2023-04-30T15:53:16.597Z,3.97
2023-04-30T15:55:44.411Z,3.40
2023-04-30T15:58:14.934Z,3.50
2023-04-30T16:00:42.410Z,3.72
2023-04-30T16:03:15.997Z,3.20
2023-04-30T16:05:43.943Z,3.25
2023-04-30T16:08:12.228Z,4.15
2023-04-30T16:10:43.446Z,3.38
2023-04-30T16:13:11.152Z,3.47
2023-04-30T16:15:38.802Z,3.72
2023-04-30T16:18:06.796Z,4.60
2023-04-30T16:20:36.951Z,4.60
2023-04-30T16:23:04.910Z,3.95
2023-04-30T16:25:32.512Z,4.53
2023-04-30T16:28:00.019Z,4.60
2023-04-30T16:30:32.359Z,5.22
2023-04-30T16:33:03.053Z,4.40
2023-04-30T16:35:31.312Z,4.50
2023-04-30T16:37:58.778Z,4.22
2023-04-30T16:40:26.257Z,3.42
2023-04-30T16:42:53.735Z,4.07
2023-04-30T16:45:21.237Z,3.90
2023-04-30T16:47:49.498Z,4.00
2023-04-30T16:50:17.260Z,4.00
2023-04-30T16:52:44.763Z,3.90
2023-04-30T16:55:12.298Z,4.15
2023-04-30T16:57:39.902Z,4.60
2023-04-30T17:00:08.811Z,4.40
2023-04-30T17:02:37.024Z,3.97
2023-04-30T17:05:04.954Z,4.03
2023-04-30T17:07:32.334Z,3.72
2023-04-30T17:09:59.866Z,4.07
2023-04-30T17:12:27.788Z,4.22
2023-04-30T17:14:55.266Z,4.13
2023-04-30T17:17:23.491Z,4.13
2023-04-30T17:19:50.933Z,3.95
2023-04-30T17:22:20.184Z,4.13
2023-04-30T17:24:47.834Z,4.50
2023-04-30T17:27:15.314Z,4.15
2023-04-30T17:29:42.995Z,4.93
2023-04-30T17:32:11.296Z,4.68
2023-04-30T17:34:39.057Z,4.30
2023-04-30T17:37:07.186Z,4.50
2023-04-30T17:39:34.739Z,5.38
2023-04-30T17:42:03.378Z,5.57
2023-04-30T17:44:31.961Z,4.45
2023-04-30T17:46:59.417Z,3.97
2023-04-30T17:49:26.864Z,3.92
2023-04-30T17:51:54.736Z,3.90
2023-04-30T17:54:22.214Z,4.18
2023-04-30T17:56:49.559Z,3.70
2023-04-30T17:59:17.007Z,3.70
2023-04-30T18:01:44.433Z,3.53
2023-04-30T18:04:16.085Z,3.83
2023-04-30T18:06:43.732Z,3.55
2023-04-30T18:09:11.320Z,3.85
2023-04-30T18:11:38.932Z,4.60
2023-04-30T18:14:06.293Z,3.92
2023-04-30T18:16:34.083Z,4.45
2023-04-30T18:19:01.714Z,4.68
2023-04-30T18:21:29.493Z,4.30
2023-04-30T18:23:56.948Z,5.25
2023-04-30T18:26:24.766Z,4.68
2023-04-30T18:28:52.729Z,4.60
2023-04-30T18:31:20.377Z,4.47
2023-04-30T18:33:47.999Z,4.80
2023-04-30T18:36:15.461Z,5.20
2023-04-30T18:38:42.868Z,5.45
2023-04-30T18:41:10.292Z,5.68
2023-04-30T18:43:40.489Z,6.25
2023-04-30T18:46:07.990Z,6.18
2023-04-30T18:48:35.564Z,6.65
2023-04-30T18:51:03.065Z,6.45
2023-04-30T18:53:30.668Z,7.00
2023-04-30T18:55:58.326Z,6.32
2023-04-30T18:58:25.925Z,5.68
2023-04-30T19:00:57.516Z,5.72
2023-04-30T19:03:25.542Z,5.35
2023-04-30T19:05:59.233Z,6.32
2023-04-30T19:10:56.059Z,7.00
2023-04-30T19:13:23.903Z,8.75
2023-04-30T19:15:53.029Z,10.18
2023-04-30T19:18:21.397Z,11.70
2023-04-30T19:21:00.245Z,12.93
2023-04-30T19:23:30.471Z,12.30
2023-04-30T19:25:58.851Z,11.82
2023-04-30T19:28:26.452Z,5.80
2023-04-30T19:30:54.863Z,4.30
2023-04-30T19:33:22.985Z,5.18
2023-04-30T19:35:53.302Z,4.50
2023-04-30T19:38:21.565Z,4.28
2023-04-30T19:40:50.025Z,4.82
2023-04-30T19:43:17.556Z,4.57
2023-04-30T19:45:48.052Z,4.90
2023-04-30T19:48:15.547Z,4.43
2023-04-30T19:50:46.842Z,5.28
2023-04-30T19:53:14.869Z,5.10
2023-04-30T19:55:42.499Z,5.28
2023-04-30T19:58:10.093Z,4.80
2023-04-30T20:00:39.582Z,4.70
2023-04-30T20:03:08.408Z,4.88
2023-04-30T20:05:36.714Z,5.28
2023-04-30T20:08:04.583Z,5.10
2023-04-30T20:10:33.920Z,4.90
2023-04-30T20:13:01.322Z,5.10
2023-04-30T20:15:28.718Z,5.60
2023-04-30T20:17:56.560Z,5.10
2023-04-30T20:20:24.723Z,5.28
2023-04-30T20:22:53.170Z,5.05
2023-04-30T20:25:21.615Z,5.60
2023-04-30T20:27:49.268Z,5.20
2023-04-30T20:30:17.304Z,5.45
2023-04-30T20:32:44.925Z,5.13
2023-04-30T20:35:12.510Z,5.78
2023-04-30T20:37:40.136Z,4.78
2023-04-30T20:40:08.048Z,5.72
2023-04-30T20:42:36.096Z,5.93
2023-04-30T20:45:05.751Z,5.38
2023-04-30T20:47:33.507Z,6.22
2023-04-30T20:50:01.094Z,5.82
2023-04-30T20:52:28.570Z,5.90
2023-04-30T20:54:56.392Z,5.38
2023-04-30T20:57:24.074Z,5.85
2023-04-30T20:59:51.648Z,6.00
2023-04-30T21:02:19.380Z,5.85
2023-04-30T21:04:46.878Z,5.70
2023-04-30T21:07:14.381Z,6.10
2023-04-30T21:09:41.831Z,6.00
2023-04-30T21:12:09.264Z,5.97
2023-04-30T21:14:39.431Z,6.10
2023-04-30T21:17:07.738Z,5.70
2023-04-30T21:19:35.180Z,6.40
2023-04-30T21:22:02.697Z,6.50
2023-04-30T21:24:33.308Z,5.50
2023-04-30T21:27:00.757Z,6.18
2023-04-30T21:29:28.217Z,5.93
2023-04-30T21:31:56.356Z,6.63
2023-04-30T21:34:23.823Z,5.70
2023-04-30T21:36:54.449Z,6.10
2023-04-30T21:39:21.990Z,6.22
2023-04-30T21:41:49.429Z,6.53
2023-04-30T21:44:17.476Z,5.80
2023-04-30T21:46:44.916Z,6.60
2023-04-30T21:49:13.087Z,5.90
2023-04-30T21:51:40.732Z,5.90
2023-04-30T21:54:08.252Z,6.75
2023-04-30T21:56:36.560Z,6.40
2023-04-30T21:59:04.003Z,6.22
2023-04-30T22:01:32.114Z,6.55
2023-04-30T22:03:59.823Z,6.13
2023-04-30T22:06:28.476Z,6.55
2023-04-30T22:08:56.624Z,6.75
2023-04-30T22:11:25.270Z,6.35
2023-04-30T22:13:52.792Z,6.45
2023-04-30T22:16:20.253Z,6.43
2023-04-30T22:18:51.235Z,6.50
2023-04-30T22:21:18.661Z,7.22
2023-04-30T22:23:46.290Z,6.30
2023-04-30T22:26:13.826Z,6.20
2023-04-30T22:28:42.156Z,6.88
2023-04-30T22:31:09.621Z,6.50
2023-04-30T22:33:37.774Z,6.38
2023-04-30T22:36:10.379Z,7.00
2023-04-30T22:38:37.828Z,7.05
2023-04-30T22:41:05.342Z,6.80
2023-04-30T22:43:32.905Z,6.40
2023-04-30T22:46:01.499Z,6.93
2023-04-30T22:48:29.167Z,7.13
2023-04-30T22:50:57.911Z,7.10
2023-04-30T22:53:25.713Z,7.00
2023-04-30T22:55:54.126Z,6.95
2023-04-30T22:58:21.645Z,7.25
2023-04-30T23:00:49.148Z,7.00
2023-04-30T23:03:17.300Z,7.10
2023-04-30T23:05:44.998Z,7.20
2023-04-30T23:08:12.625Z,6.90
2023-04-30T23:10:40.054Z,6.63
2023-04-30T23:13:09.607Z,7.07
2023-04-30T23:15:37.020Z,6.95
2023-04-30T23:18:06.587Z,6.90
2023-04-30T23:20:34.100Z,7.13
2023-04-30T23:23:01.601Z,6.40
2023-04-30T23:25:29.074Z,6.68
2023-04-30T23:27:56.641Z,6.95
2023-04-30T23:30:24.083Z,7.43
2023-04-30T23:32:51.607Z,6.78
2023-04-30T23:35:19.089Z,7.03
2023-04-30T23:37:46.666Z,7.65
2023-04-30T23:40:15.186Z,6.88
2023-04-30T23:42:42.740Z,6.82
2023-04-30T23:45:10.330Z,7.32
2023-04-30T23:47:38.401Z,7.15
2023-04-30T23:50:06.061Z,7.18
2023-04-30T23:52:33.523Z,6.82
2023-04-30T23:55:00.915Z,7.45
2023-04-30T23:57:28.386Z,7.35
2023-04-30T23:59:56.431Z,7.68
